Decoded Metar for KMSS (MASSENA in NY, USA) (IATA:MSS) | Meteo·Mobile Aviation Weather
aviador You're here:

KMSS Decoded Metar

MASSENA in NY, USA
Report Time2019-03-21 21:53:00
UTC Time2019-03-21 22:20:58
Flight Rules vfr VFR
Wind110° at 03 kt
W.Decomp.*RWY 09: 2.5 kt HW 1.7 kt RCW
RWY 05: 0.8 kt HW 2.9 kt RCW
W.Rank110° ranks 36
Current wind is below 110° avg. (4.6)
Visibility9999 m
Phenomena:N/A
Clouds:Scattered 060 Hf
Overcast 075 Hf
Expected CloudBase > 1,600 ft AGL from Temp-Dew spread
Ceiling7,500 ft
Temp06°C (ISA -9)
Dew Point02°C (76% RH)
AAT3.3°C
QNH1011 hPa
Density Alt-650 ft
Elevation217 ft
Report Wrong Elevation
Raw Report
KMSS 212153Z AUTO 11003KT 10SM SCT060 OVC075 06/02 A2985 RMK AO2
SLP113 T00610017=

Extra information for KMSS:More info

Metar Taf Metar & Taf Last 4 Metars F.Rules Stats Wind Profile Meteogram Temp Stats Airport Information Weather charts Add Link Nearby VenuesMetar ALERT Operation Metar Decoded Social comments

AIRNAV info for KMSS